Portada
METAR-TAF:

METAR-TAF

Aeroports :

Txengdu, Xina

latitud: 30-40N, longitud: 104-01E, altitud: 508 m

Observació

L'informe es va fer fa 19 minuts, a les 07:00 UTC
Vent 6 kt del Nord, variant entre Nord/Nord-Oest i Nord-Est
Temperatura 9°C
Humitat 76%
Pressió 1022 hPa
Visibilitat: 3000 m
Núvols disperses a una alçada de 2600 ft
boirina

METAR: ZUUU 180700Z 01003MPS 330V040 3000 BR SCT026 09/05 Q1022 NOSIG

Hora: 15:19 (07:19 UTC)

Pronòstic

L'informe es va fer fa 5 hores i 13 minuts, a les 02:06 UTC
Pronòstic vàlid del 18 a les 06 UTC al 19 a les 06 UTC
Vent 6 kt del Nord/Nord-Est
Visibilitat: 3500 m
Escasses núvols a una alçada de 1000 ft
Núvols disperses a una alçada de 4000 ft
boirina
Temporalment
l' 18 a les 06 UTC al 18 a les 10 UTC
pluja

TAF: ZUUU 180206Z 1806/1906 02003MPS 3500 BR FEW010 SCT040 TX10/1808Z TN06/1822Z TEMPO 1806/1810 -RA

Observacions i pronòstics meteorològics de més de 4000 aeroports (METAR i TAF).

Les estacions disponibles són els punts grocs i vermells al mapa.

Posi el ratolí al punt desitjat per veure el nom de l'estació.

Feu clic per veure les observacions i els pronòstics meteorològics.

Per canviar el mapa: feu clic els botons verds amb una creu de color negre per apropar; al botó verd amb un guió per allunyar la imatge; o en les fletxes verdes per a mapes adjacents.


METAR-TAF: